createdAt,value
2022-10-04T00:01:13.732Z,6.85
2022-10-04T00:03:44.250Z,6.18
2022-10-04T00:06:21.797Z,7.97
2022-10-04T00:08:58.730Z,6.55
2022-10-04T00:11:32.602Z,6.07
2022-10-04T00:14:05.622Z,5.90
2022-10-04T00:16:36.268Z,5.90
2022-10-04T00:19:14.963Z,5.93
2022-10-04T00:21:56.563Z,5.72
2022-10-04T00:24:34.587Z,5.60
2022-10-04T00:27:23.630Z,5.60
2022-10-04T00:30:22.090Z,5.78
2022-10-04T00:33:03.241Z,5.38
2022-10-04T00:35:29.473Z,5.78
2022-10-04T00:38:00.294Z,6.32
2022-10-04T00:40:35.232Z,6.65
2022-10-04T00:43:16.179Z,5.53
2022-10-04T00:45:47.413Z,5.35
2022-10-04T00:48:45.141Z,5.85
2022-10-04T00:51:31.304Z,6.57
2022-10-04T00:54:08.843Z,6.00
2022-10-04T00:56:41.995Z,6.18
2022-10-04T00:59:11.226Z,6.00
2022-10-04T01:01:38.161Z,6.43
2022-10-04T01:04:13.806Z,5.65
2022-10-04T01:06:41.910Z,5.70
2022-10-04T01:09:12.106Z,5.80
2022-10-04T01:11:44.866Z,5.65
2022-10-04T01:14:21.008Z,5.82
2022-10-04T01:16:47.666Z,6.00
2022-10-04T01:19:26.270Z,5.40
2022-10-04T01:22:07.573Z,5.07
2022-10-04T01:24:36.571Z,6.05
2022-10-04T01:27:03.833Z,6.00
2022-10-04T01:29:31.598Z,6.63
2022-10-04T01:32:01.723Z,5.90
2022-10-04T01:34:30.389Z,6.00
2022-10-04T01:36:59.190Z,5.97
2022-10-04T01:39:28.060Z,6.07
2022-10-04T01:42:05.049Z,6.35
2022-10-04T01:44:31.303Z,6.28
2022-10-04T01:47:02.969Z,5.82
2022-10-04T01:49:33.128Z,6.40
2022-10-04T01:52:06.253Z,6.22
2022-10-04T01:54:36.606Z,7.03
2022-10-04T01:57:10.844Z,6.47
2022-10-04T01:59:46.452Z,6.47
2022-10-04T02:02:23.680Z,6.75
2022-10-04T02:04:54.673Z,6.38
2022-10-04T02:07:22.658Z,7.25
2022-10-04T02:09:56.441Z,6.75
2022-10-04T02:12:22.991Z,6.72
2022-10-04T02:14:52.505Z,6.78
2022-10-04T02:17:26.705Z,7.47
2022-10-04T02:19:54.069Z,7.18
2022-10-04T02:22:22.934Z,5.82
2022-10-04T02:24:50.354Z,6.28
2022-10-04T02:27:16.951Z,6.72
2022-10-04T02:29:43.555Z,6.35
2022-10-04T02:32:11.086Z,6.75
2022-10-04T02:34:38.581Z,7.00
2022-10-04T02:37:06.914Z,7.60
2022-10-04T02:39:53.171Z,6.05
2022-10-04T02:42:39.749Z,6.80
2022-10-04T02:45:36.462Z,7.13
2022-10-04T02:48:13.348Z,7.43
2022-10-04T02:50:46.705Z,8.00
2022-10-04T02:53:21.521Z,6.88
2022-10-04T02:55:49.243Z,8.13
2022-10-04T02:58:20.175Z,7.30
2022-10-04T03:00:50.206Z,7.95
2022-10-04T03:03:26.862Z,8.50
2022-10-04T03:06:07.171Z,8.45
2022-10-04T03:08:44.003Z,8.82
2022-10-04T03:11:12.871Z,9.30
2022-10-04T03:13:44.364Z,9.48
2022-10-04T03:16:10.823Z,10.10
2022-10-04T03:18:37.678Z,8.52
2022-10-04T03:21:07.832Z,9.75
2022-10-04T03:23:35.334Z,9.77
2022-10-04T03:26:32.739Z,9.68
2022-10-04T03:29:00.028Z,9.70
2022-10-04T03:31:28.071Z,9.10
2022-10-04T03:33:56.281Z,8.57
2022-10-04T03:36:25.463Z,8.57
2022-10-04T03:38:55.122Z,9.30
2022-10-04T03:41:23.607Z,9.55
2022-10-04T03:43:50.967Z,9.02
2022-10-04T03:46:19.666Z,9.15
2022-10-04T03:48:49.832Z,8.18
2022-10-04T03:51:22.141Z,8.95
2022-10-04T03:53:54.703Z,8.68
2022-10-04T03:56:31.717Z,9.57
2022-10-04T03:58:58.735Z,9.88
2022-10-04T04:01:51.154Z,10.00
2022-10-04T04:04:27.348Z,8.82
2022-10-04T04:07:02.820Z,9.63
2022-10-04T04:09:43.854Z,10.48
2022-10-04T04:12:22.070Z,9.52
2022-10-04T04:17:25.831Z,10.15
2022-10-04T04:19:54.621Z,10.43
2022-10-04T04:22:21.487Z,11.43
2022-10-04T04:24:48.411Z,10.90
2022-10-04T04:27:17.710Z,11.15
2022-10-04T04:29:52.719Z,10.68
2022-10-04T04:32:32.021Z,10.55
2022-10-04T04:35:00.767Z,10.98
2022-10-04T04:37:27.196Z,11.13
2022-10-04T04:39:53.740Z,11.55
2022-10-04T04:42:35.637Z,12.23
2022-10-04T04:45:06.090Z,12.38
2022-10-04T04:47:46.414Z,12.20
2022-10-04T04:50:22.065Z,12.68
2022-10-04T04:53:16.223Z,12.65
2022-10-04T04:56:02.677Z,13.43
2022-10-04T04:58:38.684Z,11.85
2022-10-04T05:01:23.816Z,12.40
2022-10-04T05:04:08.222Z,12.02
2022-10-04T05:06:36.674Z,12.23
2022-10-04T05:09:04.998Z,12.70
2022-10-04T05:11:36.213Z,12.88
2022-10-04T05:14:11.019Z,11.82
2022-10-04T05:16:48.871Z,11.88
2022-10-04T05:19:35.469Z,12.63
2022-10-04T05:22:09.020Z,11.32
2022-10-04T05:24:40.261Z,11.35
2022-10-04T05:27:17.024Z,11.98
2022-10-04T05:30:19.895Z,12.55
2022-10-04T05:32:46.188Z,12.02
2022-10-04T05:35:20.685Z,12.85
2022-10-04T05:38:04.559Z,12.98
2022-10-04T05:40:56.662Z,13.35
2022-10-04T05:43:36.550Z,12.38
2022-10-04T05:46:24.862Z,12.90
2022-10-04T05:49:18.194Z,14.23
2022-10-04T05:51:58.161Z,13.68
2022-10-04T05:54:27.205Z,14.52
2022-10-04T05:57:18.251Z,13.80
2022-10-04T06:00:17.127Z,14.25
2022-10-04T06:03:13.438Z,15.52
2022-10-04T06:08:27.014Z,14.45
2022-10-04T06:11:09.283Z,15.02
2022-10-04T06:14:00.325Z,14.93
2022-10-04T06:16:57.290Z,13.88
2022-10-04T06:20:01.028Z,14.60
2022-10-04T06:22:27.426Z,13.73
2022-10-04T06:25:00.204Z,14.77
2022-10-04T06:27:40.810Z,14.32
2022-10-04T06:30:13.491Z,15.90
2022-10-04T06:33:10.773Z,16.42
2022-10-04T06:35:59.710Z,15.60
2022-10-04T06:38:36.673Z,16.20
2022-10-04T06:41:16.159Z,15.60
2022-10-04T06:43:54.289Z,17.08
2022-10-04T06:47:05.680Z,15.60
2022-10-04T06:49:56.733Z,15.75
2022-10-04T06:52:46.368Z,15.63
2022-10-04T06:55:27.378Z,14.45
2022-10-04T06:58:24.754Z,14.52
2022-10-04T07:01:03.538Z,13.50
2022-10-04T07:03:56.194Z,11.93
2022-10-04T07:06:29.817Z,11.95
2022-10-04T07:08:59.449Z,10.48
2022-10-04T07:11:47.402Z,9.70
2022-10-04T07:14:19.652Z,9.85
2022-10-04T07:16:51.038Z,10.25
2022-10-04T07:19:28.257Z,9.38
2022-10-04T07:21:54.514Z,9.50
2022-10-04T07:24:32.027Z,9.32
2022-10-04T07:27:01.774Z,10.13
2022-10-04T07:29:37.739Z,9.00
2022-10-04T07:32:27.952Z,8.82
2022-10-04T07:35:06.502Z,9.40
2022-10-04T07:38:09.999Z,8.55
2022-10-04T07:41:05.188Z,8.80
2022-10-04T07:43:35.620Z,9.60
2022-10-04T07:46:13.255Z,8.65
2022-10-04T07:48:42.922Z,8.23
2022-10-04T07:51:26.382Z,7.82
2022-10-04T07:54:04.840Z,8.40
2022-10-04T07:56:37.417Z,8.23
2022-10-04T07:59:25.930Z,8.32
2022-10-04T08:02:14.076Z,8.75
2022-10-04T08:05:06.718Z,9.38
2022-10-04T08:07:54.779Z,8.48
2022-10-04T08:11:03.091Z,8.57
2022-10-04T08:13:51.859Z,8.38
2022-10-04T08:16:53.641Z,8.60
2022-10-04T08:19:51.075Z,8.57
2022-10-04T08:22:34.227Z,8.60
2022-10-04T08:25:37.399Z,8.45
2022-10-04T08:28:37.919Z,7.75
2022-10-04T08:31:26.836Z,8.85
2022-10-04T08:34:06.767Z,8.52
2022-10-04T08:36:47.659Z,8.70
2022-10-04T08:39:41.426Z,8.40
2022-10-04T08:42:27.414Z,8.07
2022-10-04T08:45:37.955Z,8.80
2022-10-04T08:48:13.234Z,7.70
2022-10-04T08:51:17.936Z,8.50
2022-10-04T08:54:03.062Z,8.15
2022-10-04T08:56:53.734Z,7.47
2022-10-04T08:59:38.830Z,8.43
2022-10-04T09:02:24.076Z,8.25
2022-10-04T09:05:13.710Z,8.20
2022-10-04T09:07:57.174Z,7.93
2022-10-04T09:10:37.223Z,7.28
2022-10-04T09:13:26.842Z,7.75
2022-10-04T09:15:55.227Z,7.32
2022-10-04T09:18:38.038Z,7.40
2022-10-04T09:21:12.175Z,7.68
2022-10-04T09:24:10.569Z,7.32
2022-10-04T09:26:45.872Z,7.35
2022-10-04T09:29:30.694Z,6.10
2022-10-04T09:32:30.171Z,5.30
2022-10-04T09:35:14.880Z,4.80
2022-10-04T09:37:44.212Z,4.85
2022-10-04T09:40:47.175Z,4.97
2022-10-04T09:43:48.885Z,4.38
2022-10-04T09:46:17.908Z,4.50
2022-10-04T09:49:17.061Z,4.93
2022-10-04T09:52:20.362Z,4.55
2022-10-04T09:55:11.490Z,4.57
2022-10-04T09:57:48.070Z,4.55
2022-10-04T10:00:23.039Z,3.90
2022-10-04T10:03:25.182Z,3.95
2022-10-04T10:06:10.230Z,3.80
2022-10-04T10:08:46.168Z,3.95
2022-10-04T10:11:21.453Z,3.85
2022-10-04T10:14:12.394Z,4.20
2022-10-04T10:16:58.897Z,3.90
2022-10-04T10:19:44.192Z,4.20
2022-10-04T10:22:22.478Z,4.30
2022-10-04T10:25:02.335Z,4.18
2022-10-04T10:27:47.230Z,4.50
2022-10-04T10:30:35.460Z,4.50
2022-10-04T10:33:30.271Z,3.80
2022-10-04T10:36:23.451Z,4.15
2022-10-04T10:39:31.620Z,4.07
2022-10-04T10:42:16.617Z,4.30
2022-10-04T10:45:14.033Z,3.97
2022-10-04T10:48:15.818Z,4.45
2022-10-04T10:51:08.013Z,4.22
2022-10-04T10:53:55.638Z,4.65
2022-10-04T10:56:46.909Z,4.50
2022-10-04T10:59:35.307Z,4.00
2022-10-04T11:02:04.487Z,4.00
2022-10-04T11:04:46.038Z,4.22
2022-10-04T11:07:35.800Z,3.70
2022-10-04T11:12:44.834Z,3.58
2022-10-04T11:15:32.826Z,3.85
2022-10-04T11:18:17.613Z,3.50
2022-10-04T11:21:26.356Z,3.30
2022-10-04T11:23:55.551Z,3.13
2022-10-04T11:26:36.926Z,3.10
2022-10-04T11:29:23.582Z,3.03
2022-10-04T11:32:02.148Z,2.92
2022-10-04T11:34:59.633Z,2.70
2022-10-04T11:37:57.513Z,3.05
2022-10-04T11:40:42.361Z,2.92
2022-10-04T11:43:29.387Z,3.08
2022-10-04T11:46:10.835Z,2.75
2022-10-04T11:48:52.324Z,2.95
2022-10-04T11:51:40.142Z,2.80
2022-10-04T11:54:06.441Z,2.95
2022-10-04T11:57:09.987Z,2.75
2022-10-04T11:59:55.913Z,3.22
2022-10-04T12:02:59.543Z,3.08
2022-10-04T12:05:48.132Z,2.97
2022-10-04T12:08:29.034Z,3.35
2022-10-04T12:11:17.196Z,3.45
2022-10-04T12:14:14.155Z,2.90
2022-10-04T12:17:11.510Z,3.10
2022-10-04T12:20:19.090Z,2.90
2022-10-04T12:23:05.694Z,2.92
2022-10-04T12:25:52.117Z,3.03
2022-10-04T12:28:48.907Z,2.85
2022-10-04T12:31:19.305Z,2.95
2022-10-04T12:33:51.526Z,2.80
2022-10-04T12:36:40.859Z,2.90
2022-10-04T12:39:19.425Z,3.42
2022-10-04T12:42:07.739Z,3.30
2022-10-04T12:44:40.875Z,3.10
2022-10-04T12:47:44.926Z,2.97
2022-10-04T12:50:24.355Z,2.83
2022-10-04T12:53:00.653Z,2.80
2022-10-04T12:55:55.003Z,3.22
2022-10-04T12:58:47.433Z,2.97
2022-10-04T13:01:29.147Z,3.03
2022-10-04T13:04:04.543Z,3.05
2022-10-04T13:06:51.459Z,3.42
2022-10-04T13:10:12.086Z,2.75
2022-10-04T13:13:15.461Z,3.10
2022-10-04T13:18:45.225Z,3.30
2022-10-04T13:21:20.852Z,2.88
2022-10-04T13:24:22.026Z,3.33
2022-10-04T13:27:02.626Z,3.20
2022-10-04T13:29:41.199Z,3.10
2022-10-04T13:32:25.985Z,3.42
2022-10-04T13:35:05.277Z,3.00
2022-10-04T13:37:42.135Z,2.90
2022-10-04T13:40:28.522Z,3.08
2022-10-04T13:43:19.827Z,2.92
2022-10-04T13:45:58.503Z,3.15
2022-10-04T13:48:46.674Z,3.10
2022-10-04T13:51:24.930Z,2.70
2022-10-04T13:54:12.581Z,3.40
2022-10-04T13:56:58.506Z,3.15
2022-10-04T13:59:35.433Z,2.70
2022-10-04T14:02:23.465Z,3.03
2022-10-04T14:05:10.622Z,2.90
2022-10-04T14:08:05.416Z,3.05
2022-10-04T14:10:43.364Z,2.38
2022-10-04T14:13:34.606Z,3.10
2022-10-04T14:16:38.727Z,3.13
2022-10-04T14:19:40.240Z,2.90
2022-10-04T14:22:44.027Z,2.85
2022-10-04T14:25:41.651Z,2.53
2022-10-04T14:28:26.601Z,2.72
2022-10-04T14:31:15.724Z,3.05
2022-10-04T14:34:21.597Z,2.83
2022-10-04T14:37:09.746Z,2.90
2022-10-04T14:40:05.363Z,2.83
2022-10-04T14:42:56.659Z,3.53
2022-10-04T14:45:32.152Z,3.22
2022-10-04T14:48:24.773Z,2.80
2022-10-04T14:51:14.980Z,2.90
2022-10-04T14:53:49.633Z,2.80
2022-10-04T14:56:18.908Z,2.40
2022-10-04T14:59:00.921Z,2.50
2022-10-04T15:01:28.420Z,2.53
2022-10-04T15:04:22.278Z,2.90
2022-10-04T15:06:55.738Z,3.03
2022-10-04T15:09:32.221Z,2.85
2022-10-04T15:12:36.489Z,2.78
2022-10-04T15:15:10.184Z,2.67
2022-10-04T15:17:43.256Z,3.00
2022-10-04T15:20:24.863Z,3.00
2022-10-04T15:23:07.087Z,3.35
2022-10-04T15:25:38.197Z,3.17
2022-10-04T15:28:13.110Z,2.92
2022-10-04T15:31:00.553Z,2.80
2022-10-04T15:34:06.785Z,3.00
2022-10-04T15:37:14.587Z,2.90
2022-10-04T15:39:58.319Z,2.83
2022-10-04T15:42:29.163Z,2.92
2022-10-04T15:45:46.273Z,3.00
2022-10-04T15:48:27.989Z,3.30
2022-10-04T15:51:09.181Z,3.10
2022-10-04T15:54:05.629Z,3.20
2022-10-04T15:56:41.098Z,2.80
2022-10-04T15:59:25.865Z,3.22
2022-10-04T16:02:07.214Z,2.85
2022-10-04T16:05:06.600Z,3.15
2022-10-04T16:08:26.770Z,3.38
2022-10-04T16:10:59.482Z,3.10
2022-10-04T16:13:38.027Z,3.13
2022-10-04T16:16:16.844Z,3.30
2022-10-04T16:19:08.159Z,3.55
2022-10-04T16:21:49.658Z,3.20
2022-10-04T16:24:21.728Z,3.22
2022-10-04T16:26:48.460Z,3.45
2022-10-04T16:29:42.506Z,3.50
2022-10-04T16:32:17.633Z,3.13
2022-10-04T16:34:43.914Z,3.47
2022-10-04T16:37:10.158Z,3.60
2022-10-04T16:39:49.151Z,3.17
2022-10-04T16:42:17.598Z,3.90
2022-10-04T16:44:55.066Z,3.20
2022-10-04T16:47:31.242Z,3.88
2022-10-04T16:50:00.775Z,4.03
2022-10-04T16:52:46.666Z,3.45
2022-10-04T16:55:34.620Z,3.90
2022-10-04T16:58:26.061Z,3.95
2022-10-04T17:01:23.401Z,3.83
2022-10-04T17:03:55.874Z,3.70
2022-10-04T17:06:47.623Z,3.60
2022-10-04T17:09:23.362Z,4.07
2022-10-04T17:12:02.233Z,3.97
2022-10-04T17:15:07.939Z,3.97
2022-10-04T17:17:56.252Z,4.00
2022-10-04T17:20:25.441Z,4.10
2022-10-04T17:23:07.325Z,3.95
2022-10-04T17:25:47.365Z,4.30
2022-10-04T17:28:23.554Z,4.82
2022-10-04T17:30:56.900Z,4.78
2022-10-04T17:33:40.322Z,4.65
2022-10-04T17:36:43.148Z,4.90
2022-10-04T17:39:41.340Z,5.05
2022-10-04T17:42:37.870Z,4.72
2022-10-04T17:45:17.317Z,5.28
2022-10-04T17:48:05.580Z,4.55
2022-10-04T17:51:14.153Z,4.50
2022-10-04T17:53:45.089Z,4.30
2022-10-04T17:56:12.978Z,5.15
2022-10-04T17:58:50.774Z,5.88
2022-10-04T18:01:27.055Z,4.72
2022-10-04T18:04:06.153Z,5.47
2022-10-04T18:06:49.124Z,5.40
2022-10-04T18:09:50.518Z,4.95
2022-10-04T18:12:33.857Z,5.50
2022-10-04T18:15:20.463Z,5.82
2022-10-04T18:17:50.295Z,5.40
2022-10-04T18:20:28.000Z,6.13
2022-10-04T18:23:14.178Z,5.20
2022-10-04T18:25:41.793Z,4.88
2022-10-04T18:28:08.129Z,5.10
2022-10-04T18:30:50.541Z,5.35
2022-10-04T18:33:25.841Z,5.80
2022-10-04T18:36:03.183Z,5.93
2022-10-04T18:38:31.519Z,5.72
2022-10-04T18:41:02.860Z,6.40
2022-10-04T18:43:30.952Z,5.80
2022-10-04T18:46:01.235Z,5.95
2022-10-04T18:48:59.180Z,5.43
2022-10-04T18:51:50.985Z,5.55
2022-10-04T18:54:32.773Z,5.40
2022-10-04T18:57:05.311Z,5.30
2022-10-04T18:59:57.949Z,5.40
2022-10-04T19:02:55.697Z,4.82
2022-10-04T19:05:49.082Z,5.45
2022-10-04T19:08:48.686Z,5.13
2022-10-04T19:11:24.134Z,5.00
2022-10-04T19:14:08.753Z,5.68
2022-10-04T19:16:44.288Z,5.07
2022-10-04T19:19:32.115Z,4.95
2022-10-04T19:22:06.518Z,4.90
2022-10-04T19:25:01.017Z,4.97
2022-10-04T19:27:35.711Z,4.47
2022-10-04T19:30:04.151Z,5.03
2022-10-04T19:32:47.176Z,4.75
2022-10-04T19:35:49.405Z,5.40
2022-10-04T19:38:40.431Z,5.20
2022-10-04T19:41:14.609Z,5.75
2022-10-04T19:44:25.400Z,5.57
2022-10-04T19:46:59.712Z,5.50
2022-10-04T19:49:52.499Z,5.63
2022-10-04T19:52:23.742Z,5.50
2022-10-04T19:54:57.802Z,5.35
2022-10-04T19:57:36.981Z,5.43
2022-10-04T20:00:13.773Z,5.10
2022-10-04T20:02:47.416Z,5.18
2022-10-04T20:05:19.843Z,4.95
2022-10-04T20:07:51.222Z,5.22
2022-10-04T20:10:36.914Z,5.40
2022-10-04T20:13:12.849Z,5.70
2022-10-04T20:15:39.097Z,5.35
2022-10-04T20:18:33.249Z,5.30
2022-10-04T20:20:59.535Z,5.30
2022-10-04T20:23:37.938Z,5.55
2022-10-04T20:26:05.760Z,5.07
2022-10-04T20:28:32.123Z,5.00
2022-10-04T20:31:02.193Z,5.80
2022-10-04T20:33:34.495Z,4.85
2022-10-04T20:36:05.996Z,4.97
2022-10-04T20:38:51.188Z,4.50
2022-10-04T20:41:29.735Z,4.88
2022-10-04T20:43:58.797Z,5.00
2022-10-04T20:46:28.912Z,4.22
2022-10-04T20:48:55.472Z,4.00
2022-10-04T20:51:22.189Z,4.55
2022-10-04T20:53:49.120Z,4.25
2022-10-04T20:56:46.586Z,4.28
2022-10-04T20:59:16.354Z,4.00
2022-10-04T21:01:42.742Z,4.15
2022-10-04T21:04:23.888Z,3.50
2022-10-04T21:06:54.748Z,3.85
2022-10-04T21:09:21.383Z,3.80
2022-10-04T21:11:51.234Z,3.95
2022-10-04T21:14:28.360Z,3.78
2022-10-04T21:17:02.677Z,4.13
2022-10-04T21:19:33.564Z,4.30
2022-10-04T21:22:04.563Z,4.00
2022-10-04T21:24:42.837Z,4.20
2022-10-04T21:27:11.751Z,4.28
2022-10-04T21:29:39.430Z,4.13
2022-10-04T21:32:06.241Z,4.68
2022-10-04T21:34:52.393Z,4.30
2022-10-04T21:37:19.332Z,3.72
2022-10-04T21:39:45.875Z,4.28
2022-10-04T21:42:12.321Z,4.32
2022-10-04T21:44:38.644Z,4.47
2022-10-04T21:47:05.039Z,4.00
2022-10-04T21:49:31.343Z,4.57
2022-10-04T21:51:57.646Z,4.22
2022-10-04T21:54:24.030Z,4.25
2022-10-04T21:56:50.323Z,4.38
2022-10-04T21:59:16.671Z,4.88
2022-10-04T22:01:43.019Z,5.10
2022-10-04T22:04:09.352Z,4.60
2022-10-04T22:06:35.668Z,4.80
2022-10-04T22:09:01.962Z,4.70
2022-10-04T22:11:28.299Z,4.82
2022-10-04T22:13:54.619Z,4.75
2022-10-04T22:16:21.002Z,4.20
2022-10-04T22:18:47.365Z,4.90
2022-10-04T22:21:13.842Z,4.88
2022-10-04T22:23:42.372Z,4.70
2022-10-04T22:26:18.471Z,5.07
2022-10-04T22:28:50.694Z,5.20
2022-10-04T22:31:20.545Z,5.45
2022-10-04T22:33:49.740Z,4.90
2022-10-04T22:36:15.998Z,5.43
2022-10-04T22:38:57.404Z,5.65
2022-10-04T22:41:27.585Z,5.03
2022-10-04T22:43:57.258Z,5.15
2022-10-04T22:46:28.202Z,4.70
2022-10-04T22:48:54.489Z,5.10
2022-10-04T22:51:20.795Z,4.75
2022-10-04T22:53:47.779Z,4.65
2022-10-04T22:56:14.913Z,4.85
2022-10-04T22:58:42.071Z,4.85
2022-10-04T23:01:18.609Z,4.70
2022-10-04T23:03:46.816Z,5.13
2022-10-04T23:06:13.413Z,4.57
2022-10-04T23:08:43.227Z,4.85
2022-10-04T23:11:11.118Z,4.93
2022-10-04T23:13:38.273Z,5.30
2022-10-04T23:16:19.245Z,4.95
2022-10-04T23:18:45.667Z,4.32
2022-10-04T23:21:26.019Z,4.75
2022-10-04T23:23:53.514Z,4.45
2022-10-04T23:26:27.285Z,4.65
2022-10-04T23:28:53.623Z,4.95
2022-10-04T23:31:24.096Z,4.82
2022-10-04T23:33:51.828Z,5.00
2022-10-04T23:36:18.766Z,5.03
2022-10-04T23:38:51.856Z,5.05
2022-10-04T23:41:19.512Z,4.95
2022-10-04T23:43:48.790Z,4.60
2022-10-04T23:46:19.347Z,5.22
2022-10-04T23:48:46.935Z,5.60
2022-10-04T23:51:18.290Z,5.28
2022-10-04T23:53:48.041Z,5.18
2022-10-04T23:56:21.863Z,5.30
2022-10-04T23:58:49.829Z,5.20
